createdAt,value
2022-09-07T00:02:09.084Z,0.93
2022-09-07T00:04:36.371Z,1.13
2022-09-07T00:07:03.612Z,0.90
2022-09-07T00:09:30.878Z,0.80
2022-09-07T00:11:57.879Z,0.82
2022-09-07T00:14:25.079Z,1.10
2022-09-07T00:16:52.299Z,0.68
2022-09-07T00:19:19.573Z,0.80
2022-09-07T00:21:46.861Z,0.77
2022-09-07T00:24:13.653Z,0.70
2022-09-07T00:26:40.981Z,0.80
2022-09-07T00:29:08.469Z,0.80
2022-09-07T00:31:36.133Z,0.85
2022-09-07T00:34:03.725Z,0.93
2022-09-07T00:36:31.305Z,0.80
2022-09-07T00:38:58.738Z,0.68
2022-09-07T00:41:26.080Z,0.80
2022-09-07T00:43:57.647Z,1.27
2022-09-07T00:46:26.218Z,0.90
2022-09-07T00:49:14.766Z,1.00
2022-09-07T00:51:52.372Z,1.17
2022-09-07T00:54:32.056Z,1.17
2022-09-07T00:56:59.593Z,1.00
2022-09-07T00:59:29.626Z,1.17
2022-09-07T01:01:56.545Z,1.17
2022-09-07T01:04:24.507Z,0.88
2022-09-07T01:06:51.868Z,0.98
2022-09-07T01:09:22.208Z,1.20
2022-09-07T01:11:53.424Z,1.00
2022-09-07T01:14:36.808Z,1.20
2022-09-07T01:17:10.229Z,1.10
2022-09-07T01:19:56.306Z,1.30
2022-09-07T01:23:01.735Z,0.90
2022-09-07T01:25:34.263Z,1.13
2022-09-07T01:28:19.963Z,1.08
2022-09-07T01:30:52.295Z,1.48
2022-09-07T01:33:38.351Z,0.90
2022-09-07T01:36:05.617Z,1.30
2022-09-07T01:38:39.045Z,1.05
2022-09-07T01:41:06.300Z,1.25
2022-09-07T01:43:39.795Z,1.40
2022-09-07T01:46:14.678Z,0.98
2022-09-07T01:48:44.327Z,1.15
2022-09-07T01:51:11.683Z,1.10
2022-09-07T01:53:42.031Z,1.35
2022-09-07T01:56:12.065Z,1.20
2022-09-07T01:58:43.823Z,1.30
2022-09-07T02:01:25.977Z,1.17
2022-09-07T02:03:59.531Z,1.30
2022-09-07T02:06:49.757Z,1.70
2022-09-07T02:09:34.705Z,1.30
2022-09-07T02:12:04.131Z,1.17
2022-09-07T02:14:37.337Z,1.70
2022-09-07T02:17:09.809Z,1.50
2022-09-07T02:19:45.212Z,1.85
2022-09-07T02:22:15.172Z,1.55
2022-09-07T02:24:45.020Z,1.77
2022-09-07T02:27:16.355Z,1.67
2022-09-07T02:29:43.914Z,1.60
2022-09-07T02:32:11.156Z,1.83
2022-09-07T02:34:38.198Z,1.80
2022-09-07T02:37:08.950Z,1.83
2022-09-07T02:39:35.933Z,2.03
2022-09-07T02:42:03.564Z,2.53
2022-09-07T02:44:32.517Z,2.03
2022-09-07T02:47:15.134Z,2.15
2022-09-07T02:49:45.204Z,2.10
2022-09-07T02:52:11.924Z,2.03
2022-09-07T02:54:55.387Z,1.50
2022-09-07T02:57:43.586Z,1.42
2022-09-07T03:00:16.651Z,2.15
2022-09-07T03:03:05.265Z,1.60
2022-09-07T03:06:07.906Z,1.85
2022-09-07T03:08:37.006Z,2.03
2022-09-07T03:11:07.528Z,2.25
2022-09-07T03:13:34.736Z,1.58
2022-09-07T03:16:01.768Z,1.77
2022-09-07T03:18:29.264Z,1.65
2022-09-07T03:20:56.532Z,1.55
2022-09-07T03:23:23.763Z,1.33
2022-09-07T03:25:51.339Z,1.42
2022-09-07T03:28:18.547Z,1.30
2022-09-07T03:30:47.448Z,1.38
2022-09-07T03:33:15.919Z,1.50
2022-09-07T03:35:47.114Z,1.42
2022-09-07T03:38:13.939Z,1.40
2022-09-07T03:40:41.191Z,1.75
2022-09-07T03:43:08.399Z,1.80
2022-09-07T03:45:35.635Z,1.60
2022-09-07T03:48:02.908Z,2.08
2022-09-07T03:50:30.325Z,1.90
2022-09-07T03:52:57.569Z,1.52
2022-09-07T03:55:24.754Z,1.50
2022-09-07T03:57:51.971Z,1.30
2022-09-07T04:00:19.222Z,1.75
2022-09-07T04:02:46.528Z,1.23
2022-09-07T04:05:13.933Z,1.30
2022-09-07T04:07:40.709Z,1.48
2022-09-07T04:10:08.194Z,1.35
2022-09-07T04:12:35.459Z,1.40
2022-09-07T04:15:02.705Z,1.20
2022-09-07T04:17:29.930Z,1.35
2022-09-07T04:19:56.715Z,1.80
2022-09-07T04:22:23.567Z,1.90
2022-09-07T04:24:50.867Z,1.67
2022-09-07T04:27:18.055Z,1.50
2022-09-07T04:29:45.257Z,1.65
2022-09-07T04:32:15.680Z,2.00
2022-09-07T04:34:43.204Z,1.77
2022-09-07T04:37:09.976Z,2.42
2022-09-07T04:39:37.234Z,1.98
2022-09-07T04:42:04.596Z,2.05
2022-09-07T04:44:31.814Z,1.88
2022-09-07T04:46:59.111Z,2.10
2022-09-07T04:49:26.304Z,2.92
2022-09-07T04:51:53.679Z,2.60
2022-09-07T04:54:20.884Z,2.08
2022-09-07T04:56:47.641Z,1.88
2022-09-07T04:59:14.864Z,1.80
2022-09-07T05:01:41.877Z,2.47
2022-09-07T05:04:09.321Z,2.42
2022-09-07T05:06:36.566Z,2.28
2022-09-07T05:09:03.888Z,2.47
2022-09-07T05:11:30.701Z,2.40
2022-09-07T05:14:02.104Z,2.38
2022-09-07T05:16:30.067Z,2.33
2022-09-07T05:18:58.525Z,2.15
2022-09-07T05:21:28.256Z,2.28
2022-09-07T05:23:56.485Z,2.20
2022-09-07T05:26:24.688Z,2.60
2022-09-07T05:28:52.179Z,2.60
2022-09-07T05:31:20.774Z,2.65
2022-09-07T05:36:39.620Z,2.67
2022-09-07T05:39:07.215Z,2.65
2022-09-07T05:41:34.878Z,2.63
2022-09-07T05:46:49.565Z,2.60
2022-09-07T05:49:16.802Z,2.60
2022-09-07T05:51:44.014Z,2.63
2022-09-07T05:54:12.017Z,3.05
2022-09-07T05:56:39.325Z,2.72
2022-09-07T05:59:06.707Z,2.75
2022-09-07T06:01:35.591Z,2.80
2022-09-07T06:04:02.980Z,2.38
2022-09-07T06:06:30.400Z,2.50
2022-09-07T06:08:57.822Z,2.25
2022-09-07T06:11:26.346Z,2.63
2022-09-07T06:13:53.905Z,2.35
2022-09-07T06:16:21.941Z,3.03
2022-09-07T06:18:50.257Z,2.78
2022-09-07T06:21:18.759Z,2.83
2022-09-07T06:23:46.506Z,2.90
2022-09-07T06:26:14.430Z,3.05
2022-09-07T06:28:42.898Z,2.67
2022-09-07T06:31:11.830Z,2.53
2022-09-07T06:33:39.408Z,2.47
2022-09-07T06:36:07.869Z,3.20
2022-09-07T06:38:37.526Z,2.80
2022-09-07T06:43:57.077Z,2.05
2022-09-07T06:49:12.011Z,2.15
2022-09-07T06:51:39.258Z,2.20
2022-09-07T06:56:53.428Z,1.98
2022-09-07T06:59:20.666Z,2.10
2022-09-07T07:01:47.873Z,1.95
2022-09-07T07:04:15.540Z,2.47
2022-09-07T07:06:43.224Z,1.40
2022-09-07T07:09:14.159Z,1.23
2022-09-07T07:11:43.726Z,1.65
2022-09-07T07:14:18.400Z,1.77
2022-09-07T07:16:46.720Z,1.33
2022-09-07T07:19:14.428Z,1.42
2022-09-07T07:22:07.978Z,1.40
2022-09-07T07:24:29.743Z,2.13
2022-09-07T07:26:56.691Z,1.50
2022-09-07T07:29:26.230Z,1.70
2022-09-07T07:31:54.998Z,2.22
2022-09-07T07:34:22.405Z,1.67
2022-09-07T07:36:49.655Z,1.90
2022-09-07T07:42:05.879Z,1.73
2022-09-07T07:44:34.152Z,2.10
2022-09-07T07:47:02.642Z,2.03
2022-09-07T07:49:30.469Z,2.10
2022-09-07T07:54:45.347Z,1.73
2022-09-07T07:57:12.625Z,1.60
2022-09-07T07:59:40.040Z,2.10
2022-09-07T08:02:08.707Z,2.20
2022-09-07T08:04:36.911Z,1.65
2022-09-07T08:07:09.622Z,1.80
2022-09-07T08:09:41.775Z,1.60
2022-09-07T08:12:11.253Z,1.70
2022-09-07T08:14:42.168Z,1.92
2022-09-07T08:17:10.412Z,1.83
2022-09-07T08:19:37.720Z,1.83
2022-09-07T08:22:05.205Z,2.20
2022-09-07T08:24:32.351Z,1.77
2022-09-07T08:26:59.772Z,2.35
2022-09-07T08:29:27.380Z,2.35
2022-09-07T08:31:54.918Z,2.53
2022-09-07T08:34:22.176Z,2.03
2022-09-07T08:36:49.460Z,2.13
2022-09-07T08:39:16.914Z,2.28
2022-09-07T08:42:03.058Z,2.53
2022-09-07T08:44:30.232Z,2.20
2022-09-07T08:47:11.468Z,1.95
2022-09-07T08:49:38.684Z,2.00
2022-09-07T08:52:19.051Z,2.05
2022-09-07T08:54:55.289Z,2.22
2022-09-07T08:57:27.651Z,2.10
2022-09-07T09:00:04.864Z,2.00
2022-09-07T09:02:36.632Z,1.63
2022-09-07T09:05:21.818Z,1.90
2022-09-07T09:07:59.134Z,1.80
2022-09-07T09:10:38.412Z,2.10
2022-09-07T09:13:14.760Z,1.60
2022-09-07T09:16:00.759Z,1.88
2022-09-07T09:18:31.240Z,1.75
2022-09-07T09:20:59.953Z,1.50
2022-09-07T09:23:28.220Z,1.63
2022-09-07T09:25:58.001Z,1.88
2022-09-07T09:28:27.637Z,1.40
2022-09-07T09:30:57.530Z,1.60
2022-09-07T09:33:26.427Z,1.65
2022-09-07T09:35:55.775Z,1.70
2022-09-07T09:38:30.222Z,1.35
2022-09-07T09:41:04.330Z,1.80
2022-09-07T09:43:37.703Z,1.80
2022-09-07T09:46:13.758Z,1.08
2022-09-07T09:48:42.075Z,1.65
2022-09-07T09:53:58.660Z,1.42
2022-09-07T09:56:42.905Z,1.90
2022-09-07T10:05:25.858Z,1.50
2022-09-07T10:07:53.769Z,1.20
2022-09-07T10:10:21.261Z,1.25
2022-09-07T10:12:48.503Z,1.40
2022-09-07T10:15:32.851Z,1.75
2022-09-07T10:18:04.483Z,1.83
2022-09-07T10:20:36.366Z,1.88
2022-09-07T10:23:05.144Z,1.60
2022-09-07T10:25:33.870Z,0.90
2022-09-07T10:28:02.783Z,1.60
2022-09-07T10:30:30.520Z,1.48
2022-09-07T10:32:57.650Z,1.20
2022-09-07T10:35:30.661Z,1.58
2022-09-07T10:38:00.726Z,1.58
2022-09-07T10:40:52.089Z,1.17
2022-09-07T10:43:22.640Z,1.67
2022-09-07T10:46:02.300Z,1.50
2022-09-07T10:48:48.317Z,1.35
2022-09-07T10:51:23.087Z,1.70
2022-09-07T10:56:49.491Z,1.10
2022-09-07T11:00:07.426Z,1.23
2022-09-07T11:02:14.853Z,1.48
2022-09-07T11:04:44.251Z,1.38
2022-09-07T11:07:40.836Z,1.30
2022-09-07T11:10:26.491Z,0.98
2022-09-07T11:12:57.565Z,1.20
2022-09-07T11:15:38.175Z,1.45
2022-09-07T11:18:12.078Z,1.00
2022-09-07T11:20:43.146Z,1.15
2022-09-07T11:23:19.888Z,1.08
2022-09-07T11:25:57.868Z,1.25
2022-09-07T11:28:27.477Z,1.10
2022-09-07T11:31:00.672Z,1.13
2022-09-07T11:36:46.153Z,1.30
2022-09-07T11:39:23.048Z,1.10
2022-09-07T11:42:01.034Z,1.20
2022-09-07T11:44:36.724Z,1.08
2022-09-07T11:47:29.320Z,1.00
2022-09-07T11:49:59.400Z,0.98
2022-09-07T11:52:36.832Z,1.00
2022-09-07T11:55:06.390Z,1.10
2022-09-07T11:57:39.489Z,1.30
2022-09-07T12:00:18.862Z,1.40
2022-09-07T12:02:58.711Z,1.20
2022-09-07T12:05:29.595Z,1.15
2022-09-07T12:07:56.756Z,0.93
2022-09-07T12:10:31.936Z,1.00
2022-09-07T12:13:17.960Z,1.20
2022-09-07T12:16:08.759Z,0.82
2022-09-07T12:18:54.565Z,0.98
2022-09-07T12:21:30.844Z,1.00
2022-09-07T12:23:57.745Z,0.98
2022-09-07T12:26:36.895Z,1.02
2022-09-07T12:29:05.547Z,1.15
2022-09-07T12:31:58.207Z,0.90
2022-09-07T12:34:31.828Z,0.80
2022-09-07T12:36:59.711Z,1.23
2022-09-07T12:39:34.662Z,0.70
2022-09-07T12:45:14.047Z,0.70
2022-09-07T12:47:40.836Z,1.02
2022-09-07T12:50:28.373Z,0.98
2022-09-07T12:53:11.198Z,0.57
2022-09-07T12:59:00.104Z,0.52
2022-09-07T13:01:33.786Z,0.68
2022-09-07T13:04:13.258Z,0.68
2022-09-07T13:07:02.986Z,0.77
2022-09-07T13:09:30.459Z,0.60
2022-09-07T13:11:58.125Z,0.68
2022-09-07T13:14:26.766Z,0.85
2022-09-07T13:17:16.332Z,0.90
2022-09-07T13:19:46.515Z,0.73
2022-09-07T13:22:36.818Z,0.73
2022-09-07T13:25:24.744Z,0.60
2022-09-07T13:27:59.136Z,0.45
2022-09-07T13:30:46.311Z,0.70
2022-09-07T13:33:28.716Z,0.70
2022-09-07T13:35:57.764Z,0.40
2022-09-07T13:38:25.538Z,0.70
2022-09-07T13:40:54.682Z,0.60
2022-09-07T13:43:23.408Z,0.70
2022-09-07T13:45:56.994Z,0.57
2022-09-07T13:48:35.893Z,0.77
2022-09-07T13:51:13.258Z,0.40
2022-09-07T13:53:47.044Z,0.60
2022-09-07T13:56:17.314Z,0.70
2022-09-07T13:58:47.949Z,0.52
2022-09-07T14:01:26.449Z,0.50
2022-09-07T14:04:07.499Z,0.52
2022-09-07T14:06:35.706Z,1.00
2022-09-07T14:09:05.458Z,0.40
2022-09-07T14:12:04.930Z,0.50
2022-09-07T14:14:33.328Z,0.50
2022-09-07T14:17:00.568Z,0.77
2022-09-07T14:19:33.127Z,0.35
2022-09-07T14:22:11.094Z,0.47
2022-09-07T14:24:39.797Z,0.40
2022-09-07T14:27:07.810Z,0.70
2022-09-07T14:29:36.261Z,0.65
2022-09-07T14:32:04.743Z,0.60
2022-09-07T14:34:33.388Z,0.70
2022-09-07T14:37:03.100Z,0.40
2022-09-07T14:39:32.262Z,0.35
2022-09-07T14:41:59.846Z,0.80
2022-09-07T14:44:30.211Z,0.50
2022-09-07T14:46:58.553Z,0.50
2022-09-07T14:49:25.810Z,0.50
2022-09-07T14:51:53.706Z,0.40
2022-09-07T14:54:22.118Z,0.50
2022-09-07T14:57:09.280Z,0.50
2022-09-07T14:59:44.232Z,0.57
2022-09-07T15:02:29.545Z,0.70
2022-09-07T15:05:14.917Z,0.45
2022-09-07T15:07:43.090Z,0.47
2022-09-07T15:10:23.672Z,0.40
2022-09-07T15:12:52.292Z,0.40
2022-09-07T15:15:21.774Z,0.43
2022-09-07T15:17:49.403Z,0.30
2022-09-07T15:20:32.353Z,0.47
2022-09-07T15:23:00.178Z,0.40
2022-09-07T15:25:27.398Z,0.50
2022-09-07T15:27:55.186Z,0.50
2022-09-07T15:30:22.555Z,0.40
2022-09-07T15:32:49.932Z,0.60
2022-09-07T15:35:17.230Z,0.50
2022-09-07T15:41:10.518Z,0.40
2022-09-07T15:43:31.483Z,0.38
2022-09-07T15:45:58.979Z,0.70
2022-09-07T15:48:26.729Z,0.50
2022-09-07T15:51:02.309Z,0.40
2022-09-07T15:56:17.236Z,0.60
2022-09-07T15:58:50.851Z,0.93
2022-09-07T16:04:05.340Z,0.70
2022-09-07T16:06:35.787Z,0.52
2022-09-07T16:09:06.075Z,0.30
2022-09-07T16:11:35.339Z,0.50
2022-09-07T16:14:03.573Z,0.60
2022-09-07T16:19:20.957Z,0.77
2022-09-07T16:21:48.111Z,0.70
2022-09-07T16:24:16.300Z,0.45
2022-09-07T16:26:43.488Z,0.40
2022-09-07T16:29:10.556Z,0.50
2022-09-07T16:31:37.950Z,0.50
2022-09-07T16:34:06.095Z,0.60
2022-09-07T16:36:33.270Z,0.80
2022-09-07T16:39:01.173Z,0.77
2022-09-07T16:41:31.270Z,0.70
2022-09-07T16:43:59.004Z,0.50
2022-09-07T16:46:27.708Z,0.70
2022-09-07T16:48:55.302Z,0.75
2022-09-07T16:51:23.520Z,0.50
2022-09-07T16:53:51.529Z,0.57
2022-09-07T16:56:20.175Z,1.77
2022-09-07T16:58:48.743Z,1.00
2022-09-07T17:01:17.547Z,0.73
2022-09-07T17:03:45.404Z,0.75
2022-09-07T17:06:13.803Z,0.60
2022-09-07T17:08:41.475Z,0.63
2022-09-07T17:11:10.604Z,0.68
2022-09-07T17:13:39.283Z,0.40
2022-09-07T17:16:08.808Z,0.70
2022-09-07T17:21:23.721Z,0.60
2022-09-07T17:23:55.404Z,0.57
2022-09-07T17:26:26.504Z,0.57
2022-09-07T17:28:55.512Z,0.57
2022-09-07T17:34:13.700Z,0.50
2022-09-07T17:36:40.887Z,0.57
2022-09-07T17:39:17.182Z,0.77
2022-09-07T17:41:44.954Z,0.50
2022-09-07T17:44:12.511Z,0.80
2022-09-07T17:46:40.423Z,0.70
2022-09-07T17:49:08.815Z,0.88
2022-09-07T17:51:36.461Z,0.50
2022-09-07T17:54:09.599Z,0.60
2022-09-07T17:56:37.437Z,0.68
2022-09-07T18:01:54.165Z,0.55
2022-09-07T18:04:21.857Z,0.68
2022-09-07T18:06:48.953Z,0.80
2022-09-07T18:09:16.191Z,0.50
2022-09-07T18:11:45.866Z,0.50
2022-09-07T18:14:14.593Z,0.50
2022-09-07T18:16:42.457Z,0.80
2022-09-07T18:19:09.820Z,0.68
2022-09-07T18:21:37.366Z,0.73
2022-09-07T18:24:07.602Z,1.02
2022-09-07T18:26:36.399Z,1.10
2022-09-07T18:29:04.389Z,1.00
2022-09-07T18:31:33.407Z,1.50
2022-09-07T18:34:01.703Z,1.83
2022-09-07T18:36:29.308Z,8.90
2022-09-07T18:38:56.300Z,11.63
2022-09-07T18:41:24.765Z,7.00
2022-09-07T18:43:52.781Z,6.05
2022-09-07T18:46:23.044Z,4.90
2022-09-07T18:48:52.286Z,2.97
2022-09-07T18:51:19.667Z,2.30
2022-09-07T18:53:47.749Z,1.90
2022-09-07T18:56:17.268Z,1.65
2022-09-07T18:58:45.604Z,1.05
2022-09-07T19:01:14.531Z,1.10
2022-09-07T19:03:42.989Z,0.90
2022-09-07T19:06:12.985Z,0.93
2022-09-07T19:08:42.456Z,0.70
2022-09-07T19:11:10.926Z,0.90
2022-09-07T19:13:39.017Z,1.02
2022-09-07T19:16:12.515Z,0.60
2022-09-07T19:19:09.004Z,0.75
2022-09-07T19:21:39.040Z,0.90
2022-09-07T19:24:07.599Z,0.77
2022-09-07T19:26:37.891Z,0.90
2022-09-07T19:29:10.267Z,1.15
2022-09-07T19:31:37.667Z,1.10
2022-09-07T19:34:05.007Z,1.10
2022-09-07T19:36:34.211Z,1.30
2022-09-07T19:39:02.475Z,1.70
2022-09-07T19:41:29.732Z,0.90
2022-09-07T19:43:57.057Z,1.20
2022-09-07T19:46:25.127Z,0.73
2022-09-07T19:48:52.895Z,0.93
2022-09-07T19:51:20.079Z,0.70
2022-09-07T19:53:47.912Z,1.05
2022-09-07T19:56:17.048Z,0.65
2022-09-07T19:58:45.279Z,1.02
2022-09-07T20:01:17.468Z,0.88
2022-09-07T20:03:46.532Z,1.13
2022-09-07T20:06:15.351Z,0.95
2022-09-07T20:08:43.038Z,0.90
2022-09-07T20:11:11.922Z,0.90
2022-09-07T20:13:39.907Z,0.90
2022-09-07T20:16:08.625Z,1.10
2022-09-07T20:18:36.739Z,0.65
2022-09-07T20:21:08.097Z,0.85
2022-09-07T20:23:36.530Z,0.80
2022-09-07T20:26:08.321Z,0.77
2022-09-07T20:28:37.008Z,0.88
2022-09-07T20:31:08.730Z,0.93
2022-09-07T20:33:36.774Z,0.98
2022-09-07T20:36:10.872Z,1.00
2022-09-07T20:38:42.814Z,0.98
2022-09-07T20:41:13.836Z,0.90
2022-09-07T20:43:41.392Z,1.38
2022-09-07T20:46:11.706Z,0.73
2022-09-07T20:48:39.502Z,0.57
2022-09-07T20:51:12.619Z,0.85
2022-09-07T20:53:41.304Z,1.38
2022-09-07T20:56:13.227Z,0.80
2022-09-07T20:58:43.302Z,0.68
2022-09-07T21:01:13.773Z,0.93
2022-09-07T21:03:49.059Z,1.00
2022-09-07T21:06:20.211Z,0.90
2022-09-07T21:08:54.096Z,1.05
2022-09-07T21:11:26.799Z,0.88
2022-09-07T21:13:58.302Z,0.80
2022-09-07T21:16:25.986Z,0.80
2022-09-07T21:18:55.336Z,1.00
2022-09-07T21:21:23.602Z,0.82
2022-09-07T21:23:55.588Z,1.20
2022-09-07T21:26:22.799Z,0.80
2022-09-07T21:28:55.175Z,1.00
2022-09-07T21:31:22.499Z,0.75
2022-09-07T21:33:53.042Z,1.10
2022-09-07T21:36:19.844Z,0.80
2022-09-07T21:38:47.073Z,0.93
2022-09-07T21:41:16.213Z,0.93
2022-09-07T21:43:43.342Z,1.00
2022-09-07T21:46:11.897Z,1.10
2022-09-07T21:48:39.282Z,0.85
2022-09-07T21:51:06.914Z,0.98
2022-09-07T21:54:00.107Z,1.08
2022-09-07T21:56:28.392Z,1.20
2022-09-07T21:58:56.889Z,0.68
2022-09-07T22:01:24.996Z,0.98
2022-09-07T22:03:57.104Z,1.00
2022-09-07T22:06:24.968Z,0.90
2022-09-07T22:08:52.200Z,1.00
2022-09-07T22:11:21.285Z,0.82
2022-09-07T22:13:48.607Z,1.00
2022-09-07T22:16:16.241Z,0.80
2022-09-07T22:18:44.836Z,0.70
2022-09-07T22:21:14.074Z,0.80
2022-09-07T22:23:42.864Z,0.85
2022-09-07T22:26:10.227Z,0.85
2022-09-07T22:28:38.024Z,0.68
2022-09-07T22:31:31.902Z,1.00
2022-09-07T22:33:59.811Z,0.88
2022-09-07T22:36:31.037Z,0.80
2022-09-07T22:38:59.172Z,0.88
2022-09-07T22:41:30.893Z,0.73
2022-09-07T22:43:58.668Z,0.90
2022-09-07T22:46:27.182Z,0.70
2022-09-07T22:48:55.644Z,1.05
2022-09-07T22:51:23.972Z,0.90
2022-09-07T22:53:51.660Z,0.88
2022-09-07T22:56:20.345Z,1.00
2022-09-07T22:58:51.691Z,0.60
2022-09-07T23:01:19.343Z,0.75
2022-09-07T23:03:46.753Z,0.70
2022-09-07T23:06:19.447Z,0.90
2022-09-07T23:08:46.663Z,0.68
2022-09-07T23:11:13.871Z,0.90
2022-09-07T23:13:41.085Z,1.05
2022-09-07T23:16:08.111Z,1.20
2022-09-07T23:18:35.856Z,1.10
2022-09-07T23:21:02.851Z,0.80
2022-09-07T23:23:30.092Z,1.10
2022-09-07T23:25:56.940Z,1.02
2022-09-07T23:28:24.112Z,0.93
2022-09-07T23:30:51.128Z,1.40
2022-09-07T23:33:18.520Z,1.00
2022-09-07T23:35:56.346Z,1.00
2022-09-07T23:38:23.801Z,1.02
2022-09-07T23:40:51.008Z,1.20
2022-09-07T23:43:18.255Z,1.00
2022-09-07T23:45:45.034Z,1.23
2022-09-07T23:48:12.383Z,1.02
2022-09-07T23:50:39.179Z,1.23
2022-09-07T23:53:06.435Z,1.00
2022-09-07T23:55:33.205Z,0.90
2022-09-07T23:58:00.386Z,1.10
